sensor_id;sensor_type;location;lat;lon;timestamp;temperature;humidity
78461;SHT31;67755;51.986;5.696;2023-02-26T00:01:55;6.5;53.3
78461;SHT31;67755;51.986;5.696;2023-02-26T00:04:27;6.5;53.4
78461;SHT31;67755;51.986;5.696;2023-02-26T00:06:57;6.5;53.0
78461;SHT31;67755;51.986;5.696;2023-02-26T00:09:27;6.5;53.0
78461;SHT31;67755;51.986;5.696;2023-02-26T00:11:57;6.5;52.4
78461;SHT31;67755;51.986;5.696;2023-02-26T00:14:27;6.5;52.1
78461;SHT31;67755;51.986;5.696;2023-02-26T00:17:16;6.5;51.7
78461;SHT31;67755;51.986;5.696;2023-02-26T00:19:49;6.5;51.5
78461;SHT31;67755;51.986;5.696;2023-02-26T00:22:19;6.5;51.4
78461;SHT31;67755;51.986;5.696;2023-02-26T00:24:49;6.5;51.4
78461;SHT31;67755;51.986;5.696;2023-02-26T00:27:18;6.5;51.0
78461;SHT31;67755;51.986;5.696;2023-02-26T00:29:48;6.5;51.1
78461;SHT31;67755;51.986;5.696;2023-02-26T00:32:19;6.5;50.9
78461;SHT31;67755;51.986;5.696;2023-02-26T00:34:49;6.5;51.0
78461;SHT31;67755;51.986;5.696;2023-02-26T00:37:29;6.5;50.7
78461;SHT31;67755;51.986;5.696;2023-02-26T00:40:13;6.5;51.0
78461;SHT31;67755;51.986;5.696;2023-02-26T00:42:44;6.5;50.5
78461;SHT31;67755;51.986;5.696;2023-02-26T00:45:14;6.5;51.0
78461;SHT31;67755;51.986;5.696;2023-02-26T00:47:53;6.4;50.7
78461;SHT31;67755;51.986;5.696;2023-02-26T00:50:25;6.4;50.8
78461;SHT31;67755;51.986;5.696;2023-02-26T00:53:02;6.4;51.1
78461;SHT31;67755;51.986;5.696;2023-02-26T00:55:32;6.4;50.8
78461;SHT31;67755;51.986;5.696;2023-02-26T00:58:01;6.4;50.8
78461;SHT31;67755;51.986;5.696;2023-02-26T01:00:33;6.4;50.8
78461;SHT31;67755;51.986;5.696;2023-02-26T01:03:03;6.4;50.9
78461;SHT31;67755;51.986;5.696;2023-02-26T01:05:33;6.4;50.8
78461;SHT31;67755;51.986;5.696;2023-02-26T01:08:11;6.3;50.7
78461;SHT31;67755;51.986;5.696;2023-02-26T01:10:43;6.3;50.8
78461;SHT31;67755;51.986;5.696;2023-02-26T01:13:13;6.3;50.5
78461;SHT31;67755;51.986;5.696;2023-02-26T01:15:47;6.3;50.6
78461;SHT31;67755;51.986;5.696;2023-02-26T01:18:23;6.3;50.6
78461;SHT31;67755;51.986;5.696;2023-02-26T01:20:57;6.3;50.4
78461;SHT31;67755;51.986;5.696;2023-02-26T01:23:36;6.2;50.2
78461;SHT31;67755;51.986;5.696;2023-02-26T01:26:14;6.2;50.4
78461;SHT31;67755;51.986;5.696;2023-02-26T01:28:45;6.2;50.6
78461;SHT31;67755;51.986;5.696;2023-02-26T01:31:29;6.2;50.3
78461;SHT31;67755;51.986;5.696;2023-02-26T01:34:03;6.2;50.4
78461;SHT31;67755;51.986;5.696;2023-02-26T01:36:42;6.1;50.4
78461;SHT31;67755;51.986;5.696;2023-02-26T01:39:21;6.1;50.4
78461;SHT31;67755;51.986;5.696;2023-02-26T01:41:55;6.1;50.5
78461;SHT31;67755;51.986;5.696;2023-02-26T01:44:46;6.1;50.4
78461;SHT31;67755;51.986;5.696;2023-02-26T01:47:16;6.1;50.3
78461;SHT31;67755;51.986;5.696;2023-02-26T01:49:47;6.1;50.2
78461;SHT31;67755;51.986;5.696;2023-02-26T01:53:49;6.0;50.2
78461;SHT31;67755;51.986;5.696;2023-02-26T01:56:20;6.0;50.1
78461;SHT31;67755;51.986;5.696;2023-02-26T01:58:49;6.0;50.6
78461;SHT31;67755;51.986;5.696;2023-02-26T02:01:19;6.0;50.2
78461;SHT31;67755;51.986;5.696;2023-02-26T02:03:49;6.0;50.4
78461;SHT31;67755;51.986;5.696;2023-02-26T02:06:23;6.0;50.5
78461;SHT31;67755;51.986;5.696;2023-02-26T02:08:53;5.9;50.2
78461;SHT31;67755;51.986;5.696;2023-02-26T02:11:23;5.9;50.0
78461;SHT31;67755;51.986;5.696;2023-02-26T02:14:02;5.9;50.1
78461;SHT31;67755;51.986;5.696;2023-02-26T02:16:41;5.9;50.2
78461;SHT31;67755;51.986;5.696;2023-02-26T02:19:48;5.9;50.0
78461;SHT31;67755;51.986;5.696;2023-02-26T02:22:46;5.9;50.4
78461;SHT31;67755;51.986;5.696;2023-02-26T02:25:55;5.9;50.0
78461;SHT31;67755;51.986;5.696;2023-02-26T02:28:39;5.9;50.1
78461;SHT31;67755;51.986;5.696;2023-02-26T02:31:16;5.9;49.7
78461;SHT31;67755;51.986;5.696;2023-02-26T02:33:51;5.9;50.2
78461;SHT31;67755;51.986;5.696;2023-02-26T02:36:27;5.8;49.9
78461;SHT31;67755;51.986;5.696;2023-02-26T02:39:02;5.8;49.7
78461;SHT31;67755;51.986;5.696;2023-02-26T02:41:37;5.8;50.0
78461;SHT31;67755;51.986;5.696;2023-02-26T02:44:12;5.8;50.2
78461;SHT31;67755;51.986;5.696;2023-02-26T02:46:46;5.8;49.6
78461;SHT31;67755;51.986;5.696;2023-02-26T02:49:23;5.8;49.8
78461;SHT31;67755;51.986;5.696;2023-02-26T02:51:57;5.8;49.6
78461;SHT31;67755;51.986;5.696;2023-02-26T02:54:32;5.8;49.2
78461;SHT31;67755;51.986;5.696;2023-02-26T02:57:09;5.8;49.6
78461;SHT31;67755;51.986;5.696;2023-02-26T02:59:44;5.7;49.1
78461;SHT31;67755;51.986;5.696;2023-02-26T03:02:23;5.7;48.7
78461;SHT31;67755;51.986;5.696;2023-02-26T03:04:53;5.7;48.7
78461;SHT31;67755;51.986;5.696;2023-02-26T03:07:24;5.7;49.0
78461;SHT31;67755;51.986;5.696;2023-02-26T03:09:53;5.7;48.9
78461;SHT31;67755;51.986;5.696;2023-02-26T03:12:24;5.7;48.7
78461;SHT31;67755;51.986;5.696;2023-02-26T03:14:56;5.7;48.8
78461;SHT31;67755;51.986;5.696;2023-02-26T03:17:31;5.7;48.0
78461;SHT31;67755;51.986;5.696;2023-02-26T03:20:09;5.7;48.1
78461;SHT31;67755;51.986;5.696;2023-02-26T03:22:49;5.7;48.7
78461;SHT31;67755;51.986;5.696;2023-02-26T03:25:24;5.7;47.9
78461;SHT31;67755;51.986;5.696;2023-02-26T03:28:03;5.7;48.1
78461;SHT31;67755;51.986;5.696;2023-02-26T03:30:39;5.7;48.2
78461;SHT31;67755;51.986;5.696;2023-02-26T03:33:14;5.7;47.9
78461;SHT31;67755;51.986;5.696;2023-02-26T03:35:50;5.7;47.9
78461;SHT31;67755;51.986;5.696;2023-02-26T03:38:29;5.7;48.0
78461;SHT31;67755;51.986;5.696;2023-02-26T03:41:03;5.7;48.1
78461;SHT31;67755;51.986;5.696;2023-02-26T03:43:37;5.7;47.8
78461;SHT31;67755;51.986;5.696;2023-02-26T03:46:14;5.6;47.6
78461;SHT31;67755;51.986;5.696;2023-02-26T03:48:48;5.6;47.9
78461;SHT31;67755;51.986;5.696;2023-02-26T03:51:20;5.6;47.7
78461;SHT31;67755;51.986;5.696;2023-02-26T03:53:54;5.6;47.8
78461;SHT31;67755;51.986;5.696;2023-02-26T03:56:30;5.6;47.5
78461;SHT31;67755;51.986;5.696;2023-02-26T03:59:01;5.6;47.7
78461;SHT31;67755;51.986;5.696;2023-02-26T04:01:37;5.6;47.4
78461;SHT31;67755;51.986;5.696;2023-02-26T04:04:15;5.6;47.4
78461;SHT31;67755;51.986;5.696;2023-02-26T04:06:46;5.6;47.6
78461;SHT31;67755;51.986;5.696;2023-02-26T04:09:16;5.6;47.7
78461;SHT31;67755;51.986;5.696;2023-02-26T04:11:48;5.6;47.5
78461;SHT31;67755;51.986;5.696;2023-02-26T04:14:18;5.6;47.4
78461;SHT31;67755;51.986;5.696;2023-02-26T04:16:47;5.6;48.0
78461;SHT31;67755;51.986;5.696;2023-02-26T04:19:17;5.5;47.8
78461;SHT31;67755;51.986;5.696;2023-02-26T04:21:47;5.5;47.7
78461;SHT31;67755;51.986;5.696;2023-02-26T04:24:16;5.5;47.5
78461;SHT31;67755;51.986;5.696;2023-02-26T04:26:46;5.5;47.7
78461;SHT31;67755;51.986;5.696;2023-02-26T04:29:15;5.5;47.2
78461;SHT31;67755;51.986;5.696;2023-02-26T04:31:44;5.5;47.7
78461;SHT31;67755;51.986;5.696;2023-02-26T04:34:15;5.5;47.4
78461;SHT31;67755;51.986;5.696;2023-02-26T04:36:45;5.5;47.7
78461;SHT31;67755;51.986;5.696;2023-02-26T04:39:14;5.4;47.8
78461;SHT31;67755;51.986;5.696;2023-02-26T04:41:44;5.4;47.8
78461;SHT31;67755;51.986;5.696;2023-02-26T04:44:14;5.4;48.0
78461;SHT31;67755;51.986;5.696;2023-02-26T04:46:45;5.4;47.5
78461;SHT31;67755;51.986;5.696;2023-02-26T04:49:14;5.4;47.1
78461;SHT31;67755;51.986;5.696;2023-02-26T04:51:44;5.4;47.3
78461;SHT31;67755;51.986;5.696;2023-02-26T04:54:14;5.3;47.4
78461;SHT31;67755;51.986;5.696;2023-02-26T04:56:43;5.3;47.0
78461;SHT31;67755;51.986;5.696;2023-02-26T04:59:13;5.3;47.3
78461;SHT31;67755;51.986;5.696;2023-02-26T05:01:42;5.3;47.3
78461;SHT31;67755;51.986;5.696;2023-02-26T05:04:12;5.3;47.6
78461;SHT31;67755;51.986;5.696;2023-02-26T05:06:43;5.3;47.4
78461;SHT31;67755;51.986;5.696;2023-02-26T05:09:13;5.3;47.4
78461;SHT31;67755;51.986;5.696;2023-02-26T05:11:43;5.3;47.2
78461;SHT31;67755;51.986;5.696;2023-02-26T05:14:13;5.3;47.3
78461;SHT31;67755;51.986;5.696;2023-02-26T05:16:42;5.3;47.3
78461;SHT31;67755;51.986;5.696;2023-02-26T05:19:12;5.3;47.3
78461;SHT31;67755;51.986;5.696;2023-02-26T05:21:42;5.3;47.3
78461;SHT31;67755;51.986;5.696;2023-02-26T05:24:11;5.2;45.9
78461;SHT31;67755;51.986;5.696;2023-02-26T05:26:41;5.2;46.5
78461;SHT31;67755;51.986;5.696;2023-02-26T05:29:10;5.2;47.4
78461;SHT31;67755;51.986;5.696;2023-02-26T05:31:40;5.2;46.5
78461;SHT31;67755;51.986;5.696;2023-02-26T05:34:10;5.2;46.8
78461;SHT31;67755;51.986;5.696;2023-02-26T05:36:39;5.2;46.8
78461;SHT31;67755;51.986;5.696;2023-02-26T05:39:09;5.2;47.1
78461;SHT31;67755;51.986;5.696;2023-02-26T05:41:39;5.2;46.8
78461;SHT31;67755;51.986;5.696;2023-02-26T05:44:09;5.2;46.7
78461;SHT31;67755;51.986;5.696;2023-02-26T05:46:38;5.1;46.9
78461;SHT31;67755;51.986;5.696;2023-02-26T05:49:08;5.1;46.8
78461;SHT31;67755;51.986;5.696;2023-02-26T05:51:37;5.1;47.1
78461;SHT31;67755;51.986;5.696;2023-02-26T05:54:09;5.1;47.2
78461;SHT31;67755;51.986;5.696;2023-02-26T05:56:41;5.1;46.8
78461;SHT31;67755;51.986;5.696;2023-02-26T05:59:10;5.1;46.4
78461;SHT31;67755;51.986;5.696;2023-02-26T06:01:40;5.1;46.3
78461;SHT31;67755;51.986;5.696;2023-02-26T06:04:12;5.1;46.3
78461;SHT31;67755;51.986;5.696;2023-02-26T06:06:41;5.1;46.6
78461;SHT31;67755;51.986;5.696;2023-02-26T06:09:11;5.1;46.1
78461;SHT31;67755;51.986;5.696;2023-02-26T06:11:40;5.0;46.5
78461;SHT31;67755;51.986;5.696;2023-02-26T06:14:10;5.0;46.2
78461;SHT31;67755;51.986;5.696;2023-02-26T06:16:40;5.0;45.8
78461;SHT31;67755;51.986;5.696;2023-02-26T06:19:09;5.0;45.7
78461;SHT31;67755;51.986;5.696;2023-02-26T06:21:39;5.0;45.8
78461;SHT31;67755;51.986;5.696;2023-02-26T06:24:10;5.0;46.0
78461;SHT31;67755;51.986;5.696;2023-02-26T06:26:40;5.0;46.5
78461;SHT31;67755;51.986;5.696;2023-02-26T06:29:09;5.0;46.4
78461;SHT31;67755;51.986;5.696;2023-02-26T06:31:39;5.0;46.8
78461;SHT31;67755;51.986;5.696;2023-02-26T06:34:08;5.0;46.7
78461;SHT31;67755;51.986;5.696;2023-02-26T06:36:38;4.9;46.7
78461;SHT31;67755;51.986;5.696;2023-02-26T06:39:08;4.9;46.1
78461;SHT31;67755;51.986;5.696;2023-02-26T06:41:38;4.9;46.3
78461;SHT31;67755;51.986;5.696;2023-02-26T06:44:10;4.9;46.5
78461;SHT31;67755;51.986;5.696;2023-02-26T06:46:40;4.9;46.4
78461;SHT31;67755;51.986;5.696;2023-02-26T06:49:09;4.9;46.4
78461;SHT31;67755;51.986;5.696;2023-02-26T06:51:39;4.9;46.5
78461;SHT31;67755;51.986;5.696;2023-02-26T06:54:09;4.9;46.7
78461;SHT31;67755;51.986;5.696;2023-02-26T06:56:38;4.9;46.5
78461;SHT31;67755;51.986;5.696;2023-02-26T06:59:08;4.9;46.9
78461;SHT31;67755;51.986;5.696;2023-02-26T07:01:37;4.9;47.1
78461;SHT31;67755;51.986;5.696;2023-02-26T07:04:07;4.9;46.8
78461;SHT31;67755;51.986;5.696;2023-02-26T07:06:36;4.9;46.7
78461;SHT31;67755;51.986;5.696;2023-02-26T07:09:06;4.9;47.0
78461;SHT31;67755;51.986;5.696;2023-02-26T07:11:35;4.9;46.7
78461;SHT31;67755;51.986;5.696;2023-02-26T07:14:05;4.9;47.1
78461;SHT31;67755;51.986;5.696;2023-02-26T07:16:35;4.9;46.9
78461;SHT31;67755;51.986;5.696;2023-02-26T07:19:05;4.9;46.7
78461;SHT31;67755;51.986;5.696;2023-02-26T07:21:34;4.9;47.0
78461;SHT31;67755;51.986;5.696;2023-02-26T07:24:04;4.9;46.6
78461;SHT31;67755;51.986;5.696;2023-02-26T07:26:34;4.9;46.6
78461;SHT31;67755;51.986;5.696;2023-02-26T07:29:04;4.9;46.2
78461;SHT31;67755;51.986;5.696;2023-02-26T07:31:35;4.9;46.2
78461;SHT31;67755;51.986;5.696;2023-02-26T07:34:05;4.9;47.1
78461;SHT31;67755;51.986;5.696;2023-02-26T07:36:35;4.9;46.8
78461;SHT31;67755;51.986;5.696;2023-02-26T07:39:06;4.9;46.9
78461;SHT31;67755;51.986;5.696;2023-02-26T07:41:35;4.9;46.7
78461;SHT31;67755;51.986;5.696;2023-02-26T07:44:05;4.9;46.2
78461;SHT31;67755;51.986;5.696;2023-02-26T07:46:35;4.9;47.3
78461;SHT31;67755;51.986;5.696;2023-02-26T07:49:04;4.9;47.0
78461;SHT31;67755;51.986;5.696;2023-02-26T07:51:34;4.9;47.1
78461;SHT31;67755;51.986;5.696;2023-02-26T07:54:06;4.9;47.3
78461;SHT31;67755;51.986;5.696;2023-02-26T07:56:35;4.9;47.2
78461;SHT31;67755;51.986;5.696;2023-02-26T07:59:06;4.9;47.8
78461;SHT31;67755;51.986;5.696;2023-02-26T08:01:35;5.0;47.9
78461;SHT31;67755;51.986;5.696;2023-02-26T08:04:05;5.0;47.7
78461;SHT31;67755;51.986;5.696;2023-02-26T08:06:36;5.0;47.6
78461;SHT31;67755;51.986;5.696;2023-02-26T08:09:06;5.0;47.9
78461;SHT31;67755;51.986;5.696;2023-02-26T08:11:36;5.0;47.5
78461;SHT31;67755;51.986;5.696;2023-02-26T08:14:08;5.1;47.6
78461;SHT31;67755;51.986;5.696;2023-02-26T08:16:38;5.1;47.8
78461;SHT31;67755;51.986;5.696;2023-02-26T08:19:07;5.1;48.4
78461;SHT31;67755;51.986;5.696;2023-02-26T08:21:37;5.1;48.0
78461;SHT31;67755;51.986;5.696;2023-02-26T08:24:07;5.2;47.8
78461;SHT31;67755;51.986;5.696;2023-02-26T08:26:36;5.2;48.2
78461;SHT31;67755;51.986;5.696;2023-02-26T08:29:08;5.2;47.5
78461;SHT31;67755;51.986;5.696;2023-02-26T08:31:38;5.2;48.3
78461;SHT31;67755;51.986;5.696;2023-02-26T08:34:07;5.2;48.3
78461;SHT31;67755;51.986;5.696;2023-02-26T08:36:37;5.2;48.1
78461;SHT31;67755;51.986;5.696;2023-02-26T08:39:09;5.3;48.0
78461;SHT31;67755;51.986;5.696;2023-02-26T08:41:38;5.3;46.5
78461;SHT31;67755;51.986;5.696;2023-02-26T08:44:08;5.3;47.1
78461;SHT31;67755;51.986;5.696;2023-02-26T08:46:38;5.3;47.6
78461;SHT31;67755;51.986;5.696;2023-02-26T08:49:07;5.3;47.2
78461;SHT31;67755;51.986;5.696;2023-02-26T08:51:37;5.3;47.5
78461;SHT31;67755;51.986;5.696;2023-02-26T08:54:06;5.3;45.8
78461;SHT31;67755;51.986;5.696;2023-02-26T08:56:36;5.3;47.7
78461;SHT31;67755;51.986;5.696;2023-02-26T08:59:07;5.4;47.9
78461;SHT31;67755;51.986;5.696;2023-02-26T09:01:39;5.4;46.7
78461;SHT31;67755;51.986;5.696;2023-02-26T09:04:10;5.4;46.8
78461;SHT31;67755;51.986;5.696;2023-02-26T09:06:39;5.4;46.9
78461;SHT31;67755;51.986;5.696;2023-02-26T09:09:09;5.5;47.5
78461;SHT31;67755;51.986;5.696;2023-02-26T09:11:39;5.5;45.9
78461;SHT31;67755;51.986;5.696;2023-02-26T09:14:08;5.5;45.5
78461;SHT31;67755;51.986;5.696;2023-02-26T09:16:38;5.6;45.7
78461;SHT31;67755;51.986;5.696;2023-02-26T09:19:07;5.6;44.9
78461;SHT31;67755;51.986;5.696;2023-02-26T09:21:37;5.6;45.8
78461;SHT31;67755;51.986;5.696;2023-02-26T09:24:07;5.7;46.3
78461;SHT31;67755;51.986;5.696;2023-02-26T09:26:37;5.7;43.0
78461;SHT31;67755;51.986;5.696;2023-02-26T09:29:06;5.7;42.7
78461;SHT31;67755;51.986;5.696;2023-02-26T09:31:36;5.8;43.1
78461;SHT31;67755;51.986;5.696;2023-02-26T09:34:05;5.8;43.3
78461;SHT31;67755;51.986;5.696;2023-02-26T09:36:35;5.8;43.3
78461;SHT31;67755;51.986;5.696;2023-02-26T09:39:05;5.9;42.1
78461;SHT31;67755;51.986;5.696;2023-02-26T09:44:19;6.0;41.8
78461;SHT31;67755;51.986;5.696;2023-02-26T09:46:54;6.0;41.8
78461;SHT31;67755;51.986;5.696;2023-02-26T09:49:33;6.1;42.2
78461;SHT31;67755;51.986;5.696;2023-02-26T09:52:15;6.1;41.7
78461;SHT31;67755;51.986;5.696;2023-02-26T09:54:49;6.2;40.8
78461;SHT31;67755;51.986;5.696;2023-02-26T09:57:28;6.2;39.9
78461;SHT31;67755;51.986;5.696;2023-02-26T09:59:58;6.2;39.3
78461;SHT31;67755;51.986;5.696;2023-02-26T10:02:35;6.3;40.4
78461;SHT31;67755;51.986;5.696;2023-02-26T10:05:19;6.3;40.5
78461;SHT31;67755;51.986;5.696;2023-02-26T10:07:57;6.3;39.2
78461;SHT31;67755;51.986;5.696;2023-02-26T10:10:36;6.4;40.3
78461;SHT31;67755;51.986;5.696;2023-02-26T10:13:18;6.4;39.4
78461;SHT31;67755;51.986;5.696;2023-02-26T10:15:51;6.5;38.6
78461;SHT31;67755;51.986;5.696;2023-02-26T10:18:26;6.5;39.2
78461;SHT31;67755;51.986;5.696;2023-02-26T10:21:02;6.5;40.8
78461;SHT31;67755;51.986;5.696;2023-02-26T10:23:40;6.6;39.1
78461;SHT31;67755;51.986;5.696;2023-02-26T10:26:18;6.6;38.8
78461;SHT31;67755;51.986;5.696;2023-02-26T10:29:04;6.6;39.2
78461;SHT31;67755;51.986;5.696;2023-02-26T10:31:40;6.7;38.5
78461;SHT31;67755;51.986;5.696;2023-02-26T10:34:20;6.7;39.1
78461;SHT31;67755;51.986;5.696;2023-02-26T10:37:01;6.7;40.0
78461;SHT31;67755;51.986;5.696;2023-02-26T10:39:37;6.8;39.8
78461;SHT31;67755;51.986;5.696;2023-02-26T10:42:19;6.8;40.2
78461;SHT31;67755;51.986;5.696;2023-02-26T10:44:59;6.9;39.8
78461;SHT31;67755;51.986;5.696;2023-02-26T10:47:42;7.0;40.2
78461;SHT31;67755;51.986;5.696;2023-02-26T10:50:14;7.0;40.0
78461;SHT31;67755;51.986;5.696;2023-02-26T10:52:44;7.1;39.6
78461;SHT31;67755;51.986;5.696;2023-02-26T10:55:29;7.2;39.3
78461;SHT31;67755;51.986;5.696;2023-02-26T10:58:03;7.2;40.5
78461;SHT31;67755;51.986;5.696;2023-02-26T11:00:33;7.3;38.9
78461;SHT31;67755;51.986;5.696;2023-02-26T11:03:07;7.4;39.2
78461;SHT31;67755;51.986;5.696;2023-02-26T11:05:38;7.4;37.7
78461;SHT31;67755;51.986;5.696;2023-02-26T11:08:15;7.5;39.0
78461;SHT31;67755;51.986;5.696;2023-02-26T11:10:50;7.6;38.4
78461;SHT31;67755;51.986;5.696;2023-02-26T11:13:22;7.6;37.8
78461;SHT31;67755;51.986;5.696;2023-02-26T11:15:54;7.7;37.3
78461;SHT31;67755;51.986;5.696;2023-02-26T11:18:27;7.7;38.5
78461;SHT31;67755;51.986;5.696;2023-02-26T11:20:59;7.8;37.5
78461;SHT31;67755;51.986;5.696;2023-02-26T11:23:30;7.8;37.8
78461;SHT31;67755;51.986;5.696;2023-02-26T11:26:05;7.8;36.9
78461;SHT31;67755;51.986;5.696;2023-02-26T11:28:43;7.9;38.1
78461;SHT31;67755;51.986;5.696;2023-02-26T11:31:16;7.9;37.5
78461;SHT31;67755;51.986;5.696;2023-02-26T11:33:48;7.9;37.0
78461;SHT31;67755;51.986;5.696;2023-02-26T11:36:21;7.9;36.9
78461;SHT31;67755;51.986;5.696;2023-02-26T11:38:56;8.0;35.8
78461;SHT31;67755;51.986;5.696;2023-02-26T11:41:29;8.0;38.2
78461;SHT31;67755;51.986;5.696;2023-02-26T11:44:03;8.0;38.0
78461;SHT31;67755;51.986;5.696;2023-02-26T11:46:40;8.0;37.2
78461;SHT31;67755;51.986;5.696;2023-02-26T11:49:15;8.0;36.9
78461;SHT31;67755;51.986;5.696;2023-02-26T11:51:47;8.0;35.6
78461;SHT31;67755;51.986;5.696;2023-02-26T11:54:22;8.1;37.1
78461;SHT31;67755;51.986;5.696;2023-02-26T11:57:01;8.1;36.3
78461;SHT31;67755;51.986;5.696;2023-02-26T11:59:39;8.1;35.0
78461;SHT31;67755;51.986;5.696;2023-02-26T12:02:12;8.1;36.0
78461;SHT31;67755;51.986;5.696;2023-02-26T12:04:49;8.1;36.1
78461;SHT31;67755;51.986;5.696;2023-02-26T12:07:21;8.1;35.3
78461;SHT31;67755;51.986;5.696;2023-02-26T12:09:51;8.2;37.4
78461;SHT31;67755;51.986;5.696;2023-02-26T12:12:37;8.2;37.2
78461;SHT31;67755;51.986;5.696;2023-02-26T12:15:20;8.2;37.6
78461;SHT31;67755;51.986;5.696;2023-02-26T12:17:58;8.3;37.7
78461;SHT31;67755;51.986;5.696;2023-02-26T12:20:34;8.3;37.7
78461;SHT31;67755;51.986;5.696;2023-02-26T12:23:30;8.4;38.0
78461;SHT31;67755;51.986;5.696;2023-02-26T12:26:12;8.4;37.1
78461;SHT31;67755;51.986;5.696;2023-02-26T12:29:01;8.4;36.5
78461;SHT31;67755;51.986;5.696;2023-02-26T12:31:58;8.5;37.1
78461;SHT31;67755;51.986;5.696;2023-02-26T12:34:50;8.5;36.1
78461;SHT31;67755;51.986;5.696;2023-02-26T12:37:41;8.6;35.3
78461;SHT31;67755;51.986;5.696;2023-02-26T12:40:27;8.6;36.5
78461;SHT31;67755;51.986;5.696;2023-02-26T12:43:09;8.6;35.1
78461;SHT31;67755;51.986;5.696;2023-02-26T12:45:50;8.6;35.0
78461;SHT31;67755;51.986;5.696;2023-02-26T12:48:39;8.7;35.3
78461;SHT31;67755;51.986;5.696;2023-02-26T12:51:21;8.7;35.5
78461;SHT31;67755;51.986;5.696;2023-02-26T12:54:01;8.7;35.9
78461;SHT31;67755;51.986;5.696;2023-02-26T12:56:57;8.7;36.3
78461;SHT31;67755;51.986;5.696;2023-02-26T13:00:07;8.8;35.5
78461;SHT31;67755;51.986;5.696;2023-02-26T13:03:07;8.8;36.2
78461;SHT31;67755;51.986;5.696;2023-02-26T13:05:57;8.8;36.7
78461;SHT31;67755;51.986;5.696;2023-02-26T13:08:33;8.8;35.4
78461;SHT31;67755;51.986;5.696;2023-02-26T13:11:18;8.9;34.3
78461;SHT31;67755;51.986;5.696;2023-02-26T13:14:17;8.9;36.0
78461;SHT31;67755;51.986;5.696;2023-02-26T13:16:48;9.0;34.9
78461;SHT31;67755;51.986;5.696;2023-02-26T13:19:32;9.0;34.5
78461;SHT31;67755;51.986;5.696;2023-02-26T13:22:16;9.0;33.5
78461;SHT31;67755;51.986;5.696;2023-02-26T13:24:55;9.1;34.1
78461;SHT31;67755;51.986;5.696;2023-02-26T13:27:30;9.1;33.6
78461;SHT31;67755;51.986;5.696;2023-02-26T13:30:19;9.1;34.5
78461;SHT31;67755;51.986;5.696;2023-02-26T13:32:53;9.1;35.2
78461;SHT31;67755;51.986;5.696;2023-02-26T13:35:27;9.2;35.4
78461;SHT31;67755;51.986;5.696;2023-02-26T13:38:04;9.2;34.1
78461;SHT31;67755;51.986;5.696;2023-02-26T13:40:42;9.2;35.4
78461;SHT31;67755;51.986;5.696;2023-02-26T13:43:27;9.3;33.9
78461;SHT31;67755;51.986;5.696;2023-02-26T13:46:06;9.3;33.8
78461;SHT31;67755;51.986;5.696;2023-02-26T13:48:44;9.3;34.6
78461;SHT31;67755;51.986;5.696;2023-02-26T13:51:28;9.3;35.4
78461;SHT31;67755;51.986;5.696;2023-02-26T13:54:01;9.4;33.3
78461;SHT31;67755;51.986;5.696;2023-02-26T13:58:36;9.4;34.9
78461;SHT31;67755;51.986;5.696;2023-02-26T14:01:12;9.4;32.2
78461;SHT31;67755;51.986;5.696;2023-02-26T14:03:46;9.4;33.5
78461;SHT31;67755;51.986;5.696;2023-02-26T14:06:37;9.5;33.9
78461;SHT31;67755;51.986;5.696;2023-02-26T14:11:24;9.5;33.5
78461;SHT31;67755;51.986;5.696;2023-02-26T14:14:06;9.5;32.9
78461;SHT31;67755;51.986;5.696;2023-02-26T14:16:41;9.5;33.0
78461;SHT31;67755;51.986;5.696;2023-02-26T14:20:11;9.5;33.2
78461;SHT31;67755;51.986;5.696;2023-02-26T14:22:45;9.5;34.5
78461;SHT31;67755;51.986;5.696;2023-02-26T14:25:18;9.5;33.6
78461;SHT31;67755;51.986;5.696;2023-02-26T14:27:49;9.5;32.7
78461;SHT31;67755;51.986;5.696;2023-02-26T14:30:29;9.5;33.2
78461;SHT31;67755;51.986;5.696;2023-02-26T14:33:14;9.5;33.5
78461;SHT31;67755;51.986;5.696;2023-02-26T14:35:48;9.5;34.8
78461;SHT31;67755;51.986;5.696;2023-02-26T14:38:23;9.5;35.7
78461;SHT31;67755;51.986;5.696;2023-02-26T14:40:58;9.5;35.5
78461;SHT31;67755;51.986;5.696;2023-02-26T14:43:34;9.5;34.8
78461;SHT31;67755;51.986;5.696;2023-02-26T14:46:07;9.5;36.0
78461;SHT31;67755;51.986;5.696;2023-02-26T14:48:38;9.5;34.8
78461;SHT31;67755;51.986;5.696;2023-02-26T14:51:19;9.4;35.4
78461;SHT31;67755;51.986;5.696;2023-02-26T14:54:26;9.4;34.0
78461;SHT31;67755;51.986;5.696;2023-02-26T14:57:05;9.4;35.5
78461;SHT31;67755;51.986;5.696;2023-02-26T15:00:04;9.4;35.2
78461;SHT31;67755;51.986;5.696;2023-02-26T15:02:53;9.3;34.3
78461;SHT31;67755;51.986;5.696;2023-02-26T15:05:33;9.3;34.1
78461;SHT31;67755;51.986;5.696;2023-02-26T15:08:31;9.3;33.9
78461;SHT31;67755;51.986;5.696;2023-02-26T15:11:27;9.3;35.3
78461;SHT31;67755;51.986;5.696;2023-02-26T15:14:33;9.2;35.3
78461;SHT31;67755;51.986;5.696;2023-02-26T15:17:17;9.2;34.7
78461;SHT31;67755;51.986;5.696;2023-02-26T15:20:03;9.2;35.5
78461;SHT31;67755;51.986;5.696;2023-02-26T15:22:50;9.2;35.2
78461;SHT31;67755;51.986;5.696;2023-02-26T15:25:27;9.2;36.2
78461;SHT31;67755;51.986;5.696;2023-02-26T15:27:59;9.1;35.3
78461;SHT31;67755;51.986;5.696;2023-02-26T15:30:32;9.1;36.0
78461;SHT31;67755;51.986;5.696;2023-02-26T15:33:11;9.1;36.3
78461;SHT31;67755;51.986;5.696;2023-02-26T15:35:43;9.1;35.8
78461;SHT31;67755;51.986;5.696;2023-02-26T15:38:13;9.1;36.1
78461;SHT31;67755;51.986;5.696;2023-02-26T15:40:43;9.1;35.2
78461;SHT31;67755;51.986;5.696;2023-02-26T15:43:15;9.1;35.4
78461;SHT31;67755;51.986;5.696;2023-02-26T15:45:49;9.1;35.6
78461;SHT31;67755;51.986;5.696;2023-02-26T15:48:23;9.1;36.2
78461;SHT31;67755;51.986;5.696;2023-02-26T15:50:59;9.1;36.9
78461;SHT31;67755;51.986;5.696;2023-02-26T15:53:33;9.1;37.7
78461;SHT31;67755;51.986;5.696;2023-02-26T15:56:06;9.1;37.2
78461;SHT31;67755;51.986;5.696;2023-02-26T15:58:40;9.1;36.4
78461;SHT31;67755;51.986;5.696;2023-02-26T16:01:17;9.1;36.7
78461;SHT31;67755;51.986;5.696;2023-02-26T16:03:50;9.1;36.8
78461;SHT31;67755;51.986;5.696;2023-02-26T16:06:24;9.0;36.7
78461;SHT31;67755;51.986;5.696;2023-02-26T16:08:54;9.0;36.7
78461;SHT31;67755;51.986;5.696;2023-02-26T16:11:28;9.0;36.3
78461;SHT31;67755;51.986;5.696;2023-02-26T16:14:02;9.0;38.0
78461;SHT31;67755;51.986;5.696;2023-02-26T16:16:43;9.0;37.5
78461;SHT31;67755;51.986;5.696;2023-02-26T16:19:16;9.0;36.1
78461;SHT31;67755;51.986;5.696;2023-02-26T16:21:48;9.0;35.6
78461;SHT31;67755;51.986;5.696;2023-02-26T16:24:19;9.0;37.0
78461;SHT31;67755;51.986;5.696;2023-02-26T16:26:53;8.9;36.3
78461;SHT31;67755;51.986;5.696;2023-02-26T16:29:27;8.9;36.5
78461;SHT31;67755;51.986;5.696;2023-02-26T16:32:02;8.9;36.8
78461;SHT31;67755;51.986;5.696;2023-02-26T16:34:36;8.9;37.7
78461;SHT31;67755;51.986;5.696;2023-02-26T16:37:21;8.9;37.5
78461;SHT31;67755;51.986;5.696;2023-02-26T16:39:55;8.9;38.2
78461;SHT31;67755;51.986;5.696;2023-02-26T16:42:45;8.8;37.3
78461;SHT31;67755;51.986;5.696;2023-02-26T16:45:24;8.8;38.4
78461;SHT31;67755;51.986;5.696;2023-02-26T16:47:59;8.8;38.3
78461;SHT31;67755;51.986;5.696;2023-02-26T16:50:32;8.8;38.4
78461;SHT31;67755;51.986;5.696;2023-02-26T16:53:06;8.8;38.2
78461;SHT31;67755;51.986;5.696;2023-02-26T16:55:40;8.8;38.8
78461;SHT31;67755;51.986;5.696;2023-02-26T16:58:13;8.7;39.2
78461;SHT31;67755;51.986;5.696;2023-02-26T17:00:49;8.7;39.8
78461;SHT31;67755;51.986;5.696;2023-02-26T17:03:23;8.7;39.0
78461;SHT31;67755;51.986;5.696;2023-02-26T17:05:57;8.7;39.7
78461;SHT31;67755;51.986;5.696;2023-02-26T17:08:32;8.7;40.1
78461;SHT31;67755;51.986;5.696;2023-02-26T17:11:05;8.7;39.9
78461;SHT31;67755;51.986;5.696;2023-02-26T17:13:36;8.6;40.4
78461;SHT31;67755;51.986;5.696;2023-02-26T17:16:10;8.6;40.5